Bavaria

Go HERE for most recent data if this page is not up to date.

Jump to table bottom
Date Time Temp F RH % AVG Wind Max Wind Wind Dir 24 Snow Depth
04/22 09:00 23.0 41 3 9 SW - 244 0.1 53.5
04/22 08:00 16.5 62 4 10 NW - 305 0.2 53.4
04/22 07:00 15.2 65 4 10 W - 273 0.2 53.3
04/22 06:00 16.0 60 8 11 W - 282 0.1 53.3
04/22 05:00 17.0 55 8 13 NW - 336 0.1 53.3
04/22 04:00 18.5 51 7 11 NW - 307 0.1 53.3
04/22 03:00 19.5 55 8 13 W - 265 0.1 53.2
04/22 02:00 21.2 56 7 11 NW - 298 0.1 53.1
04/22 01:00 23.1 58 7 11 W - 279 0.1 53.2
04/22 00:00 25.3 60 4 13 W - 289 0.1 53.4
04/21 23:00 27.9 70 5 10 SW - 239 0.1 53.4
04/21 22:00 30.6 66 5 11 NW - 320 0.1 53.5
04/21 21:00 32.5 59 7 16 W - 271 0.1 53.3
04/21 20:00 35.2 56 10 16 NW - 309 0.0 52.9
04/21 19:00 39.7 41 3 11 W - 264 0.1 53.4
04/21 18:00 39.4 49 3 8 W - 251 0.2 53.5
04/21 17:00 34.0 77 3 8 S - 184 0.0 53.0
04/21 16:00 33.5 79 3 8 W - 286 -0.2 53.3
04/21 15:00 42.6 38 3 8 W - 279 -0.0 53.4
04/21 14:00 40.7 44 3 11 SE - 116 -0.1 53.7
04/21 13:00 44.2 38 3 6 S - 180 -0.0 54.0
04/21 12:00 44.2 36 3 6 SW - 232 -0.0 54.7
04/21 11:00 44.8 35 3 7 S - 179 0.0 54.8
04/21 10:00 39.8 43 3 8 SW - 245 0.0 55.0
04/21 09:00 38.7 47 4 9 SE - 147 0.2 55.2
04/21 08:00 36.2 51 2 4 W - 259 0.2 55.4
04/21 07:00 32.9 49 2 9 W - 284 0.2 55.6
04/21 06:00 32.4 41 2 9 SW - 246 0.3 55.6
04/21 05:00 30.3 43 0 4 SW - 245 0.2 55.6
04/21 04:00 29.0 41 0 3 SW - 231 0.3 55.7
04/21 03:00 27.7 42 1 5 W - 276 0.2 55.6
04/21 02:00 28.1 44 1 5 W - 275 0.2 55.8
04/21 01:00 27.6 44 1 4 NW - 306 0.2 55.8
04/21 00:00 27.7 39 1 5 W - 258 0.2 55.6
.